sensor_id;sensor_type;location;lat;lon;timestamp;temperature;humidity
15072;DHT22;7635;56.696;13.002;2023-03-22T00:00:34;8.00;99.90
15072;DHT22;7635;56.696;13.002;2023-03-22T00:03:02;8.00;99.90
15072;DHT22;7635;56.696;13.002;2023-03-22T00:05:30;8.00;99.90
15072;DHT22;7635;56.696;13.002;2023-03-22T00:07:57;8.00;99.90
15072;DHT22;7635;56.696;13.002;2023-03-22T00:10:24;8.00;99.90
15072;DHT22;7635;56.696;13.002;2023-03-22T00:12:52;7.90;99.90
15072;DHT22;7635;56.696;13.002;2023-03-22T00:15:18;7.90;99.90
15072;DHT22;7635;56.696;13.002;2023-03-22T00:17:45;7.90;99.90
15072;DHT22;7635;56.696;13.002;2023-03-22T00:20:12;7.90;99.90
15072;DHT22;7635;56.696;13.002;2023-03-22T00:22:40;7.90;99.90
15072;DHT22;7635;56.696;13.002;2023-03-22T00:25:07;7.90;99.90
15072;DHT22;7635;56.696;13.002;2023-03-22T00:27:34;8.00;99.90
15072;DHT22;7635;56.696;13.002;2023-03-22T00:30:01;8.00;99.90
15072;DHT22;7635;56.696;13.002;2023-03-22T00:32:28;8.00;99.90
15072;DHT22;7635;56.696;13.002;2023-03-22T00:34:54;8.00;99.90
15072;DHT22;7635;56.696;13.002;2023-03-22T00:37:21;8.00;99.90
15072;DHT22;7635;56.696;13.002;2023-03-22T00:39:49;8.00;99.90
15072;DHT22;7635;56.696;13.002;2023-03-22T00:42:16;8.00;99.90
15072;DHT22;7635;56.696;13.002;2023-03-22T00:44:42;8.00;99.90
15072;DHT22;7635;56.696;13.002;2023-03-22T00:47:09;8.10;99.90
15072;DHT22;7635;56.696;13.002;2023-03-22T00:49:36;8.10;99.90
15072;DHT22;7635;56.696;13.002;2023-03-22T00:52:03;8.10;99.90
15072;DHT22;7635;56.696;13.002;2023-03-22T00:54:30;8.10;99.90
15072;DHT22;7635;56.696;13.002;2023-03-22T00:56:58;8.10;99.90
15072;DHT22;7635;56.696;13.002;2023-03-22T00:59:25;8.10;99.90
15072;DHT22;7635;56.696;13.002;2023-03-22T01:01:52;8.10;99.90
15072;DHT22;7635;56.696;13.002;2023-03-22T01:04:19;8.10;99.90
15072;DHT22;7635;56.696;13.002;2023-03-22T01:06:50;8.10;99.90
15072;DHT22;7635;56.696;13.002;2023-03-22T01:09:23;8.10;99.90
15072;DHT22;7635;56.696;13.002;2023-03-22T01:11:53;8.10;99.90
15072;DHT22;7635;56.696;13.002;2023-03-22T01:14:22;8.10;99.90
15072;DHT22;7635;56.696;13.002;2023-03-22T01:16:48;8.10;99.90
15072;DHT22;7635;56.696;13.002;2023-03-22T01:19:15;8.10;99.90
15072;DHT22;7635;56.696;13.002;2023-03-22T01:21:42;8.10;99.90
15072;DHT22;7635;56.696;13.002;2023-03-22T01:24:08;8.10;99.90
15072;DHT22;7635;56.696;13.002;2023-03-22T01:26:35;8.10;99.90
15072;DHT22;7635;56.696;13.002;2023-03-22T01:29:03;8.10;99.90
15072;DHT22;7635;56.696;13.002;2023-03-22T01:31:31;8.10;99.90
15072;DHT22;7635;56.696;13.002;2023-03-22T01:33:58;8.10;99.90
15072;DHT22;7635;56.696;13.002;2023-03-22T01:36:25;8.10;99.90
15072;DHT22;7635;56.696;13.002;2023-03-22T01:38:52;8.10;99.90
15072;DHT22;7635;56.696;13.002;2023-03-22T01:41:18;8.10;99.90
15072;DHT22;7635;56.696;13.002;2023-03-22T01:44:06;8.10;99.90
15072;DHT22;7635;56.696;13.002;2023-03-22T01:46:34;8.10;99.90
15072;DHT22;7635;56.696;13.002;2023-03-22T01:49:02;8.20;99.90
15072;DHT22;7635;56.696;13.002;2023-03-22T01:51:31;8.20;99.90
15072;DHT22;7635;56.696;13.002;2023-03-22T01:53:59;8.20;99.90
15072;DHT22;7635;56.696;13.002;2023-03-22T01:56:31;8.20;99.90
15072;DHT22;7635;56.696;13.002;2023-03-22T01:59:00;8.20;99.90
15072;DHT22;7635;56.696;13.002;2023-03-22T02:01:28;8.20;99.90
15072;DHT22;7635;56.696;13.002;2023-03-22T02:03:58;8.20;99.90
15072;DHT22;7635;56.696;13.002;2023-03-22T02:06:28;8.20;99.90
15072;DHT22;7635;56.696;13.002;2023-03-22T02:08:56;8.10;99.90
15072;DHT22;7635;56.696;13.002;2023-03-22T02:11:27;8.10;99.90
15072;DHT22;7635;56.696;13.002;2023-03-22T02:14:07;8.10;99.90
15072;DHT22;7635;56.696;13.002;2023-03-22T02:16:45;8.10;99.90
15072;DHT22;7635;56.696;13.002;2023-03-22T02:22:51;8.10;99.90
15072;DHT22;7635;56.696;13.002;2023-03-22T02:25:54;8.10;99.90
15072;DHT22;7635;56.696;13.002;2023-03-22T02:28:38;8.10;99.90
15072;DHT22;7635;56.696;13.002;2023-03-22T02:31:20;8.10;99.90
15072;DHT22;7635;56.696;13.002;2023-03-22T02:34:04;8.10;99.90
15072;DHT22;7635;56.696;13.002;2023-03-22T02:36:53;8.10;99.90
15072;DHT22;7635;56.696;13.002;2023-03-22T02:39:33;8.20;99.90
15072;DHT22;7635;56.696;13.002;2023-03-22T02:42:11;8.20;99.90
15072;DHT22;7635;56.696;13.002;2023-03-22T02:44:42;8.20;99.90
15072;DHT22;7635;56.696;13.002;2023-03-22T02:47:19;8.10;99.90
15072;DHT22;7635;56.696;13.002;2023-03-22T02:49:53;8.10;99.90
15072;DHT22;7635;56.696;13.002;2023-03-22T02:52:26;8.20;99.90
15072;DHT22;7635;56.696;13.002;2023-03-22T02:55:01;8.20;99.90
15072;DHT22;7635;56.696;13.002;2023-03-22T02:57:32;8.20;99.90
15072;DHT22;7635;56.696;13.002;2023-03-22T03:00:00;8.20;99.90
15072;DHT22;7635;56.696;13.002;2023-03-22T03:02:31;8.20;99.90
15072;DHT22;7635;56.696;13.002;2023-03-22T03:04:58;8.20;99.90
15072;DHT22;7635;56.696;13.002;2023-03-22T03:07:26;8.20;99.90
15072;DHT22;7635;56.696;13.002;2023-03-22T03:09:55;8.10;99.90
15072;DHT22;7635;56.696;13.002;2023-03-22T03:12:24;8.20;99.90
15072;DHT22;7635;56.696;13.002;2023-03-22T03:14:51;8.20;99.90
15072;DHT22;7635;56.696;13.002;2023-03-22T03:17:28;8.20;99.90
15072;DHT22;7635;56.696;13.002;2023-03-22T03:20:09;8.20;99.90
15072;DHT22;7635;56.696;13.002;2023-03-22T03:22:48;8.20;99.90
15072;DHT22;7635;56.696;13.002;2023-03-22T03:25:25;8.20;99.90
15072;DHT22;7635;56.696;13.002;2023-03-22T03:27:57;8.20;99.90
15072;DHT22;7635;56.696;13.002;2023-03-22T03:30:30;8.20;99.90
15072;DHT22;7635;56.696;13.002;2023-03-22T03:33:00;8.20;99.90
15072;DHT22;7635;56.696;13.002;2023-03-22T03:35:32;8.20;99.90
15072;DHT22;7635;56.696;13.002;2023-03-22T03:38:05;8.20;99.90
15072;DHT22;7635;56.696;13.002;2023-03-22T03:40:39;8.20;99.90
15072;DHT22;7635;56.696;13.002;2023-03-22T03:43:07;8.20;99.90
15072;DHT22;7635;56.696;13.002;2023-03-22T03:45:35;8.20;99.90
15072;DHT22;7635;56.696;13.002;2023-03-22T03:48:05;8.20;99.90
15072;DHT22;7635;56.696;13.002;2023-03-22T03:50:33;8.10;99.90
15072;DHT22;7635;56.696;13.002;2023-03-22T03:53:00;8.10;99.90
15072;DHT22;7635;56.696;13.002;2023-03-22T03:55:28;8.10;99.90
15072;DHT22;7635;56.696;13.002;2023-03-22T03:57:56;8.10;99.90
15072;DHT22;7635;56.696;13.002;2023-03-22T04:00:23;8.10;99.90
15072;DHT22;7635;56.696;13.002;2023-03-22T04:02:50;8.10;99.90
15072;DHT22;7635;56.696;13.002;2023-03-22T04:05:16;8.10;99.90
15072;DHT22;7635;56.696;13.002;2023-03-22T04:07:46;8.10;99.90
15072;DHT22;7635;56.696;13.002;2023-03-22T04:10:13;8.10;99.90
15072;DHT22;7635;56.696;13.002;2023-03-22T04:12:39;8.10;99.90
15072;DHT22;7635;56.696;13.002;2023-03-22T04:15:09;8.10;99.90
15072;DHT22;7635;56.696;13.002;2023-03-22T04:17:36;8.10;99.90
15072;DHT22;7635;56.696;13.002;2023-03-22T04:20:04;8.10;99.90
15072;DHT22;7635;56.696;13.002;2023-03-22T04:22:32;8.10;99.90
15072;DHT22;7635;56.696;13.002;2023-03-22T04:24:59;8.10;99.90
15072;DHT22;7635;56.696;13.002;2023-03-22T04:27:26;8.20;99.90
15072;DHT22;7635;56.696;13.002;2023-03-22T04:29:53;8.20;99.90
15072;DHT22;7635;56.696;13.002;2023-03-22T04:32:21;8.20;99.90
15072;DHT22;7635;56.696;13.002;2023-03-22T04:34:48;8.20;99.90
15072;DHT22;7635;56.696;13.002;2023-03-22T04:37:16;8.20;99.90
15072;DHT22;7635;56.696;13.002;2023-03-22T04:39:42;8.20;99.90
15072;DHT22;7635;56.696;13.002;2023-03-22T04:42:09;8.20;99.90
15072;DHT22;7635;56.696;13.002;2023-03-22T04:44:36;8.20;99.90
15072;DHT22;7635;56.696;13.002;2023-03-22T04:47:03;8.20;99.90
15072;DHT22;7635;56.696;13.002;2023-03-22T04:49:31;8.20;99.90
15072;DHT22;7635;56.696;13.002;2023-03-22T04:51:58;8.20;99.90
15072;DHT22;7635;56.696;13.002;2023-03-22T04:54:25;8.20;99.90
15072;DHT22;7635;56.696;13.002;2023-03-22T04:56:51;8.20;99.90
15072;DHT22;7635;56.696;13.002;2023-03-22T04:59:18;8.20;99.90
15072;DHT22;7635;56.696;13.002;2023-03-22T05:01:45;8.20;99.90
15072;DHT22;7635;56.696;13.002;2023-03-22T05:04:12;8.20;99.90
15072;DHT22;7635;56.696;13.002;2023-03-22T05:06:40;8.20;99.90
15072;DHT22;7635;56.696;13.002;2023-03-22T05:09:07;8.20;99.90
15072;DHT22;7635;56.696;13.002;2023-03-22T05:11:34;8.20;99.90
15072;DHT22;7635;56.696;13.002;2023-03-22T05:14:02;8.20;99.90
15072;DHT22;7635;56.696;13.002;2023-03-22T05:16:29;8.20;99.90
15072;DHT22;7635;56.696;13.002;2023-03-22T05:18:55;8.20;99.90
15072;DHT22;7635;56.696;13.002;2023-03-22T05:21:24;8.20;99.90
15072;DHT22;7635;56.696;13.002;2023-03-22T05:23:54;8.20;99.90
15072;DHT22;7635;56.696;13.002;2023-03-22T05:26:22;8.20;99.90
15072;DHT22;7635;56.696;13.002;2023-03-22T05:28:51;8.20;99.90
15072;DHT22;7635;56.696;13.002;2023-03-22T05:31:18;8.20;99.90
15072;DHT22;7635;56.696;13.002;2023-03-22T05:33:46;8.20;99.90
15072;DHT22;7635;56.696;13.002;2023-03-22T05:36:12;8.20;99.90
15072;DHT22;7635;56.696;13.002;2023-03-22T05:38:39;8.20;99.90
15072;DHT22;7635;56.696;13.002;2023-03-22T05:41:07;8.20;99.90
15072;DHT22;7635;56.696;13.002;2023-03-22T05:43:35;8.20;99.90
15072;DHT22;7635;56.696;13.002;2023-03-22T05:46:04;8.20;99.90
15072;DHT22;7635;56.696;13.002;2023-03-22T05:48:31;8.20;99.90
15072;DHT22;7635;56.696;13.002;2023-03-22T05:50:57;8.20;99.90
15072;DHT22;7635;56.696;13.002;2023-03-22T05:53:24;8.30;99.90
15072;DHT22;7635;56.696;13.002;2023-03-22T05:55:51;8.30;99.90
15072;DHT22;7635;56.696;13.002;2023-03-22T05:58:23;8.30;99.90
15072;DHT22;7635;56.696;13.002;2023-03-22T06:00:55;8.30;99.90
15072;DHT22;7635;56.696;13.002;2023-03-22T06:03:22;8.30;99.90
15072;DHT22;7635;56.696;13.002;2023-03-22T06:05:48;8.30;99.90
15072;DHT22;7635;56.696;13.002;2023-03-22T06:08:15;8.30;99.90
15072;DHT22;7635;56.696;13.002;2023-03-22T06:10:42;8.30;99.90
15072;DHT22;7635;56.696;13.002;2023-03-22T06:13:09;8.30;99.90
15072;DHT22;7635;56.696;13.002;2023-03-22T06:15:37;8.30;99.90
15072;DHT22;7635;56.696;13.002;2023-03-22T06:18:03;8.30;99.90
15072;DHT22;7635;56.696;13.002;2023-03-22T06:20:30;8.40;99.90
15072;DHT22;7635;56.696;13.002;2023-03-22T06:22:57;8.40;99.90
15072;DHT22;7635;56.696;13.002;2023-03-22T06:25:23;8.40;99.90
15072;DHT22;7635;56.696;13.002;2023-03-22T06:27:50;8.40;99.90
15072;DHT22;7635;56.696;13.002;2023-03-22T06:30:17;8.40;99.90
15072;DHT22;7635;56.696;13.002;2023-03-22T06:32:45;8.40;99.90
15072;DHT22;7635;56.696;13.002;2023-03-22T06:35:12;8.40;99.90
15072;DHT22;7635;56.696;13.002;2023-03-22T06:37:39;8.40;99.90
15072;DHT22;7635;56.696;13.002;2023-03-22T06:40:07;8.40;99.90
15072;DHT22;7635;56.696;13.002;2023-03-22T06:42:34;8.40;99.90
15072;DHT22;7635;56.696;13.002;2023-03-22T06:45:02;8.40;99.90
15072;DHT22;7635;56.696;13.002;2023-03-22T06:47:29;8.40;99.90
15072;DHT22;7635;56.696;13.002;2023-03-22T06:49:57;8.40;99.90
15072;DHT22;7635;56.696;13.002;2023-03-22T06:52:24;8.50;99.90
15072;DHT22;7635;56.696;13.002;2023-03-22T06:54:51;8.50;99.90
15072;DHT22;7635;56.696;13.002;2023-03-22T06:57:17;8.50;99.90
15072;DHT22;7635;56.696;13.002;2023-03-22T06:59:44;8.50;99.90
15072;DHT22;7635;56.696;13.002;2023-03-22T07:02:11;8.50;99.90
15072;DHT22;7635;56.696;13.002;2023-03-22T07:04:38;8.50;99.90
15072;DHT22;7635;56.696;13.002;2023-03-22T07:07:06;8.50;99.90
15072;DHT22;7635;56.696;13.002;2023-03-22T07:09:33;8.50;99.90
15072;DHT22;7635;56.696;13.002;2023-03-22T07:12:00;8.50;99.90
15072;DHT22;7635;56.696;13.002;2023-03-22T07:14:27;8.50;99.90
15072;DHT22;7635;56.696;13.002;2023-03-22T07:16:54;8.50;99.90
15072;DHT22;7635;56.696;13.002;2023-03-22T07:19:20;8.50;99.90
15072;DHT22;7635;56.696;13.002;2023-03-22T07:21:47;8.50;99.90
15072;DHT22;7635;56.696;13.002;2023-03-22T07:24:15;8.50;99.90
15072;DHT22;7635;56.696;13.002;2023-03-22T07:26:42;8.50;99.90
15072;DHT22;7635;56.696;13.002;2023-03-22T07:29:09;8.50;99.90
15072;DHT22;7635;56.696;13.002;2023-03-22T07:31:35;8.60;99.90
15072;DHT22;7635;56.696;13.002;2023-03-22T07:34:03;8.60;99.90
15072;DHT22;7635;56.696;13.002;2023-03-22T07:36:31;8.60;99.90
15072;DHT22;7635;56.696;13.002;2023-03-22T07:38:58;8.60;99.90
15072;DHT22;7635;56.696;13.002;2023-03-22T07:41:26;8.60;99.90
15072;DHT22;7635;56.696;13.002;2023-03-22T07:43:54;8.60;99.90
15072;DHT22;7635;56.696;13.002;2023-03-22T07:46:21;8.60;99.90
15072;DHT22;7635;56.696;13.002;2023-03-22T07:48:48;8.60;99.90
15072;DHT22;7635;56.696;13.002;2023-03-22T07:51:14;8.60;99.90
15072;DHT22;7635;56.696;13.002;2023-03-22T07:53:41;8.60;99.90
15072;DHT22;7635;56.696;13.002;2023-03-22T07:56:08;8.60;99.90
15072;DHT22;7635;56.696;13.002;2023-03-22T07:58:36;8.60;99.90
15072;DHT22;7635;56.696;13.002;2023-03-22T08:01:04;8.60;99.90
15072;DHT22;7635;56.696;13.002;2023-03-22T08:03:33;8.60;99.90
15072;DHT22;7635;56.696;13.002;2023-03-22T08:06:00;8.70;99.90
15072;DHT22;7635;56.696;13.002;2023-03-22T08:08:30;8.70;99.90
15072;DHT22;7635;56.696;13.002;2023-03-22T08:10:57;8.70;99.90
15072;DHT22;7635;56.696;13.002;2023-03-22T08:13:24;8.70;99.90
15072;DHT22;7635;56.696;13.002;2023-03-22T08:15:52;8.70;99.90
15072;DHT22;7635;56.696;13.002;2023-03-22T08:18:19;8.60;99.90
15072;DHT22;7635;56.696;13.002;2023-03-22T08:20:51;8.70;99.90
15072;DHT22;7635;56.696;13.002;2023-03-22T08:23:17;8.70;99.90
15072;DHT22;7635;56.696;13.002;2023-03-22T08:25:44;8.70;99.90
15072;DHT22;7635;56.696;13.002;2023-03-22T08:28:11;8.70;99.90
15072;DHT22;7635;56.696;13.002;2023-03-22T08:30:40;8.70;99.90
15072;DHT22;7635;56.696;13.002;2023-03-22T08:33:08;8.60;99.90
15072;DHT22;7635;56.696;13.002;2023-03-22T08:35:35;8.60;99.90
15072;DHT22;7635;56.696;13.002;2023-03-22T08:38:01;8.70;99.90
15072;DHT22;7635;56.696;13.002;2023-03-22T08:40:28;8.60;99.90
15072;DHT22;7635;56.696;13.002;2023-03-22T08:42:55;8.60;99.90
15072;DHT22;7635;56.696;13.002;2023-03-22T08:45:21;8.60;99.90
15072;DHT22;7635;56.696;13.002;2023-03-22T08:47:48;8.60;99.90
15072;DHT22;7635;56.696;13.002;2023-03-22T08:50:16;8.60;99.90
15072;DHT22;7635;56.696;13.002;2023-03-22T08:52:43;8.60;99.90
15072;DHT22;7635;56.696;13.002;2023-03-22T08:55:10;8.60;99.90
15072;DHT22;7635;56.696;13.002;2023-03-22T08:57:38;8.60;99.90
15072;DHT22;7635;56.696;13.002;2023-03-22T09:00:06;8.70;99.90
15072;DHT22;7635;56.696;13.002;2023-03-22T09:02:35;8.70;99.90
15072;DHT22;7635;56.696;13.002;2023-03-22T09:05:02;8.70;99.90
15072;DHT22;7635;56.696;13.002;2023-03-22T09:07:30;8.70;99.90
15072;DHT22;7635;56.696;13.002;2023-03-22T09:09:57;8.70;99.90
15072;DHT22;7635;56.696;13.002;2023-03-22T09:12:24;8.70;99.90
15072;DHT22;7635;56.696;13.002;2023-03-22T09:14:51;8.70;99.90
15072;DHT22;7635;56.696;13.002;2023-03-22T09:17:18;8.70;99.90
15072;DHT22;7635;56.696;13.002;2023-03-22T09:19:45;8.70;99.90
15072;DHT22;7635;56.696;13.002;2023-03-22T09:22:12;8.70;99.90
15072;DHT22;7635;56.696;13.002;2023-03-22T09:24:41;8.70;99.90
15072;DHT22;7635;56.696;13.002;2023-03-22T09:27:07;8.70;99.90
15072;DHT22;7635;56.696;13.002;2023-03-22T09:29:34;8.70;99.90
15072;DHT22;7635;56.696;13.002;2023-03-22T09:32:01;8.70;99.90
15072;DHT22;7635;56.696;13.002;2023-03-22T09:34:27;8.70;99.90
15072;DHT22;7635;56.696;13.002;2023-03-22T09:36:54;8.70;99.90
15072;DHT22;7635;56.696;13.002;2023-03-22T09:39:23;8.70;99.90
15072;DHT22;7635;56.696;13.002;2023-03-22T09:41:52;8.70;99.90
15072;DHT22;7635;56.696;13.002;2023-03-22T09:44:25;8.70;99.90
15072;DHT22;7635;56.696;13.002;2023-03-22T09:46:54;8.70;99.90
15072;DHT22;7635;56.696;13.002;2023-03-22T09:49:27;8.70;99.90
15072;DHT22;7635;56.696;13.002;2023-03-22T09:51:55;8.70;99.90
15072;DHT22;7635;56.696;13.002;2023-03-22T09:54:28;8.70;99.90
15072;DHT22;7635;56.696;13.002;2023-03-22T09:56:59;8.70;99.90
15072;DHT22;7635;56.696;13.002;2023-03-22T09:59:33;8.70;99.90
15072;DHT22;7635;56.696;13.002;2023-03-22T10:02:21;8.70;99.90
15072;DHT22;7635;56.696;13.002;2023-03-22T10:04:58;8.70;99.90
15072;DHT22;7635;56.696;13.002;2023-03-22T10:07:31;8.70;99.90
15072;DHT22;7635;56.696;13.002;2023-03-22T10:10:07;8.70;99.90
15072;DHT22;7635;56.696;13.002;2023-03-22T10:12:40;8.70;99.90
15072;DHT22;7635;56.696;13.002;2023-03-22T10:15:12;8.70;99.90
15072;DHT22;7635;56.696;13.002;2023-03-22T10:17:42;8.70;99.90
15072;DHT22;7635;56.696;13.002;2023-03-22T10:20:17;8.70;99.90
15072;DHT22;7635;56.696;13.002;2023-03-22T10:22:45;8.70;99.90
15072;DHT22;7635;56.696;13.002;2023-03-22T10:25:18;8.70;99.90
15072;DHT22;7635;56.696;13.002;2023-03-22T10:27:49;8.80;99.90
15072;DHT22;7635;56.696;13.002;2023-03-22T10:30:19;8.80;99.90
15072;DHT22;7635;56.696;13.002;2023-03-22T10:32:50;8.80;99.90
15072;DHT22;7635;56.696;13.002;2023-03-22T10:35:18;8.80;99.90
15072;DHT22;7635;56.696;13.002;2023-03-22T10:37:48;8.80;99.90
15072;DHT22;7635;56.696;13.002;2023-03-22T10:40:18;8.90;99.90
15072;DHT22;7635;56.696;13.002;2023-03-22T10:42:52;8.90;99.90
15072;DHT22;7635;56.696;13.002;2023-03-22T10:45:20;8.90;99.90
15072;DHT22;7635;56.696;13.002;2023-03-22T10:47:53;9.00;99.90
15072;DHT22;7635;56.696;13.002;2023-03-22T10:50:25;9.00;99.90
15072;DHT22;7635;56.696;13.002;2023-03-22T10:52:56;9.00;99.90
15072;DHT22;7635;56.696;13.002;2023-03-22T10:55:24;8.90;99.90
15072;DHT22;7635;56.696;13.002;2023-03-22T10:57:58;8.90;99.90
15072;DHT22;7635;56.696;13.002;2023-03-22T11:00:25;8.90;99.90
15072;DHT22;7635;56.696;13.002;2023-03-22T11:02:57;8.90;99.90
15072;DHT22;7635;56.696;13.002;2023-03-22T11:05:26;9.00;99.90
15072;DHT22;7635;56.696;13.002;2023-03-22T11:07:53;9.00;99.90
15072;DHT22;7635;56.696;13.002;2023-03-22T11:10:26;9.00;99.90
15072;DHT22;7635;56.696;13.002;2023-03-22T11:13:09;9.10;99.90
15072;DHT22;7635;56.696;13.002;2023-03-22T11:15:38;9.10;99.90
15072;DHT22;7635;56.696;13.002;2023-03-22T11:18:07;9.10;99.90
15072;DHT22;7635;56.696;13.002;2023-03-22T11:20:39;9.20;99.90
15072;DHT22;7635;56.696;13.002;2023-03-22T11:23:09;9.20;99.90
15072;DHT22;7635;56.696;13.002;2023-03-22T11:25:43;9.20;99.90
15072;DHT22;7635;56.696;13.002;2023-03-22T11:28:18;9.30;99.90
15072;DHT22;7635;56.696;13.002;2023-03-22T11:31:01;9.30;99.90
15072;DHT22;7635;56.696;13.002;2023-03-22T11:33:28;9.30;99.90
15072;DHT22;7635;56.696;13.002;2023-03-22T11:36:01;9.40;99.90
15072;DHT22;7635;56.696;13.002;2023-03-22T11:38:29;9.50;99.90
15072;DHT22;7635;56.696;13.002;2023-03-22T11:41:02;9.50;99.90
15072;DHT22;7635;56.696;13.002;2023-03-22T11:43:34;9.60;99.90
15072;DHT22;7635;56.696;13.002;2023-03-22T11:46:02;9.60;99.90
15072;DHT22;7635;56.696;13.002;2023-03-22T11:48:31;9.60;99.90
15072;DHT22;7635;56.696;13.002;2023-03-22T11:51:04;9.60;99.90
15072;DHT22;7635;56.696;13.002;2023-03-22T11:53:32;9.70;99.90
15072;DHT22;7635;56.696;13.002;2023-03-22T11:56:02;9.60;99.90
15072;DHT22;7635;56.696;13.002;2023-03-22T11:58:49;9.70;99.90
15072;DHT22;7635;56.696;13.002;2023-03-22T12:01:27;9.60;99.90
15072;DHT22;7635;56.696;13.002;2023-03-22T12:03:58;9.60;99.90
15072;DHT22;7635;56.696;13.002;2023-03-22T12:06:28;9.60;99.90
15072;DHT22;7635;56.696;13.002;2023-03-22T12:08:59;9.60;99.90
15072;DHT22;7635;56.696;13.002;2023-03-22T12:11:32;9.60;99.90
15072;DHT22;7635;56.696;13.002;2023-03-22T12:14:04;9.60;99.90
15072;DHT22;7635;56.696;13.002;2023-03-22T12:16:40;9.50;99.90
15072;DHT22;7635;56.696;13.002;2023-03-22T12:19:21;9.50;99.90
15072;DHT22;7635;56.696;13.002;2023-03-22T12:21:51;9.50;99.90
15072;DHT22;7635;56.696;13.002;2023-03-22T12:24:25;9.50;99.90
15072;DHT22;7635;56.696;13.002;2023-03-22T12:26:55;9.50;99.90
15072;DHT22;7635;56.696;13.002;2023-03-22T12:29:26;9.40;99.90
15072;DHT22;7635;56.696;13.002;2023-03-22T12:31:59;9.40;99.90
15072;DHT22;7635;56.696;13.002;2023-03-22T12:34:35;9.40;99.90
15072;DHT22;7635;56.696;13.002;2023-03-22T12:37:06;9.40;99.90
15072;DHT22;7635;56.696;13.002;2023-03-22T12:39:38;9.40;99.90
15072;DHT22;7635;56.696;13.002;2023-03-22T12:42:12;9.40;99.90
15072;DHT22;7635;56.696;13.002;2023-03-22T12:44:43;9.30;99.90
15072;DHT22;7635;56.696;13.002;2023-03-22T12:47:15;9.30;99.90
15072;DHT22;7635;56.696;13.002;2023-03-22T12:49:47;9.30;99.90
15072;DHT22;7635;56.696;13.002;2023-03-22T12:52:18;9.30;99.90
15072;DHT22;7635;56.696;13.002;2023-03-22T12:54:47;9.30;99.90
15072;DHT22;7635;56.696;13.002;2023-03-22T12:57:16;9.30;99.90
15072;DHT22;7635;56.696;13.002;2023-03-22T12:59:46;9.20;99.90
15072;DHT22;7635;56.696;13.002;2023-03-22T13:02:16;9.20;99.90
15072;DHT22;7635;56.696;13.002;2023-03-22T13:04:52;9.20;99.90
15072;DHT22;7635;56.696;13.002;2023-03-22T13:07:51;9.20;99.90
15072;DHT22;7635;56.696;13.002;2023-03-22T13:10:37;9.20;99.90
15072;DHT22;7635;56.696;13.002;2023-03-22T13:13:12;9.20;99.90
15072;DHT22;7635;56.696;13.002;2023-03-22T13:15:56;9.20;99.90
15072;DHT22;7635;56.696;13.002;2023-03-22T13:18:36;9.10;99.90
15072;DHT22;7635;56.696;13.002;2023-03-22T13:21:14;9.10;99.90
15072;DHT22;7635;56.696;13.002;2023-03-22T13:23:53;9.10;99.90
15072;DHT22;7635;56.696;13.002;2023-03-22T13:26:22;9.10;99.90
15072;DHT22;7635;56.696;13.002;2023-03-22T13:28:56;9.10;99.90
15072;DHT22;7635;56.696;13.002;2023-03-22T13:31:36;9.10;99.90
15072;DHT22;7635;56.696;13.002;2023-03-22T13:34:12;9.10;99.90
15072;DHT22;7635;56.696;13.002;2023-03-22T13:36:47;9.10;99.90
15072;DHT22;7635;56.696;13.002;2023-03-22T13:39:15;9.10;99.90
15072;DHT22;7635;56.696;13.002;2023-03-22T13:41:45;9.10;99.90
15072;DHT22;7635;56.696;13.002;2023-03-22T13:44:23;9.10;99.90
15072;DHT22;7635;56.696;13.002;2023-03-22T13:46:57;9.10;99.90
15072;DHT22;7635;56.696;13.002;2023-03-22T13:49:41;9.10;99.90
15072;DHT22;7635;56.696;13.002;2023-03-22T13:52:26;9.10;99.90
15072;DHT22;7635;56.696;13.002;2023-03-22T13:54:55;9.00;99.90
15072;DHT22;7635;56.696;13.002;2023-03-22T13:57:55;9.00;99.90
15072;DHT22;7635;56.696;13.002;2023-03-22T14:00:35;9.00;99.90
15072;DHT22;7635;56.696;13.002;2023-03-22T14:03:11;9.00;99.90
15072;DHT22;7635;56.696;13.002;2023-03-22T14:05:41;9.00;99.90
15072;DHT22;7635;56.696;13.002;2023-03-22T14:08:18;9.00;99.90
15072;DHT22;7635;56.696;13.002;2023-03-22T14:10:49;9.00;99.90
15072;DHT22;7635;56.696;13.002;2023-03-22T14:13:24;9.00;99.90
15072;DHT22;7635;56.696;13.002;2023-03-22T14:15:55;9.00;99.90
15072;DHT22;7635;56.696;13.002;2023-03-22T14:18:27;9.00;99.90
15072;DHT22;7635;56.696;13.002;2023-03-22T14:20:57;9.00;99.90
15072;DHT22;7635;56.696;13.002;2023-03-22T14:23:27;9.00;99.90
15072;DHT22;7635;56.696;13.002;2023-03-22T14:26:04;9.00;99.90
15072;DHT22;7635;56.696;13.002;2023-03-22T14:28:33;9.00;99.90
15072;DHT22;7635;56.696;13.002;2023-03-22T14:31:02;8.90;99.90
15072;DHT22;7635;56.696;13.002;2023-03-22T14:33:30;8.90;99.90
15072;DHT22;7635;56.696;13.002;2023-03-22T14:36:03;8.90;99.90
15072;DHT22;7635;56.696;13.002;2023-03-22T14:38:33;8.90;99.90
15072;DHT22;7635;56.696;13.002;2023-03-22T14:41:06;8.90;99.90
15072;DHT22;7635;56.696;13.002;2023-03-22T14:43:33;8.90;99.90
15072;DHT22;7635;56.696;13.002;2023-03-22T14:46:02;8.90;99.90
15072;DHT22;7635;56.696;13.002;2023-03-22T14:48:33;8.90;99.90
15072;DHT22;7635;56.696;13.002;2023-03-22T14:51:02;8.90;99.90
15072;DHT22;7635;56.696;13.002;2023-03-22T14:53:33;8.90;99.90
15072;DHT22;7635;56.696;13.002;2023-03-22T14:56:03;8.90;99.90
15072;DHT22;7635;56.696;13.002;2023-03-22T14:58:32;8.90;99.90
15072;DHT22;7635;56.696;13.002;2023-03-22T15:01:00;8.90;99.90
15072;DHT22;7635;56.696;13.002;2023-03-22T15:03:28;8.90;99.90
15072;DHT22;7635;56.696;13.002;2023-03-22T15:05:58;9.00;99.90
15072;DHT22;7635;56.696;13.002;2023-03-22T15:08:30;9.00;99.90
15072;DHT22;7635;56.696;13.002;2023-03-22T15:10:59;9.00;99.90
15072;DHT22;7635;56.696;13.002;2023-03-22T15:13:28;9.00;99.90
15072;DHT22;7635;56.696;13.002;2023-03-22T15:15:55;9.00;99.90
15072;DHT22;7635;56.696;13.002;2023-03-22T15:18:25;9.00;99.90
15072;DHT22;7635;56.696;13.002;2023-03-22T15:20:54;9.00;99.90
15072;DHT22;7635;56.696;13.002;2023-03-22T15:23:30;9.00;99.90
15072;DHT22;7635;56.696;13.002;2023-03-22T15:25:57;9.00;99.90
15072;DHT22;7635;56.696;13.002;2023-03-22T15:28:27;8.90;99.90
15072;DHT22;7635;56.696;13.002;2023-03-22T15:30:54;9.00;99.90
15072;DHT22;7635;56.696;13.002;2023-03-22T15:33:31;9.00;99.90
15072;DHT22;7635;56.696;13.002;2023-03-22T15:36:00;8.90;99.90
15072;DHT22;7635;56.696;13.002;2023-03-22T15:38:30;8.90;99.90
15072;DHT22;7635;56.696;13.002;2023-03-22T15:41:02;9.00;99.90
15072;DHT22;7635;56.696;13.002;2023-03-22T15:43:33;8.90;99.90
15072;DHT22;7635;56.696;13.002;2023-03-22T15:46:13;9.00;99.90
15072;DHT22;7635;56.696;13.002;2023-03-22T15:48:42;8.90;99.90
15072;DHT22;7635;56.696;13.002;2023-03-22T15:51:14;9.00;99.90
15072;DHT22;7635;56.696;13.002;2023-03-22T15:53:46;8.90;99.90
15072;DHT22;7635;56.696;13.002;2023-03-22T15:56:31;8.90;99.90
15072;DHT22;7635;56.696;13.002;2023-03-22T15:58:59;8.90;99.90
15072;DHT22;7635;56.696;13.002;2023-03-22T16:01:27;8.90;99.90
15072;DHT22;7635;56.696;13.002;2023-03-22T16:04:10;8.90;99.90
15072;DHT22;7635;56.696;13.002;2023-03-22T16:06:37;8.90;99.90